createdAt,value
2019-06-26T00:00:13.797Z,84.10
2019-06-26T00:02:42.965Z,84.50
2019-06-26T00:05:12.114Z,84.90
2019-06-26T00:07:41.142Z,85.30
2019-06-26T00:10:10.566Z,85.00
2019-06-26T00:12:39.328Z,85.40
2019-06-26T00:15:09.332Z,85.90
2019-06-26T00:17:38.483Z,86.20
2019-06-26T00:20:07.996Z,86.50
2019-06-26T00:22:37.059Z,86.80
2019-06-26T00:25:06.090Z,86.90
2019-06-26T00:27:35.260Z,87.30
2019-06-26T00:30:04.912Z,88.10
2019-06-26T00:32:34.015Z,87.70
2019-06-26T00:35:02.842Z,88.10
2019-06-26T00:37:31.880Z,88.20
2019-06-26T00:40:00.629Z,88.50
2019-06-26T00:42:29.671Z,89.20
2019-06-26T00:44:58.450Z,89.10
2019-06-26T00:47:27.217Z,89.60
2019-06-26T00:49:56.017Z,89.80
2019-06-26T00:52:24.783Z,90.00
2019-06-26T00:54:53.865Z,90.20
2019-06-26T00:57:23.211Z,90.40
2019-06-26T00:59:51.983Z,90.50
2019-06-26T01:02:21.141Z,90.60
2019-06-26T01:04:52.175Z,90.80
2019-06-26T01:07:20.954Z,91.10
2019-06-26T01:09:49.731Z,91.10
2019-06-26T01:12:18.555Z,91.30
2019-06-26T01:14:47.815Z,91.50
2019-06-26T01:17:17.391Z,91.60
2019-06-26T01:19:46.194Z,91.70
2019-06-26T01:22:15.379Z,91.90
2019-06-26T01:24:44.167Z,92.00
2019-06-26T01:27:12.936Z,92.10
2019-06-26T01:29:42.078Z,92.20
2019-06-26T01:32:10.837Z,92.40
2019-06-26T01:34:39.865Z,92.40
2019-06-26T01:37:08.666Z,92.60
2019-06-26T01:39:37.500Z,92.70
2019-06-26T01:42:06.695Z,92.90
2019-06-26T01:44:35.460Z,93.10
2019-06-26T01:47:04.629Z,93.10
2019-06-26T01:49:33.735Z,93.40
2019-06-26T01:52:03.000Z,93.50
2019-06-26T01:54:31.852Z,93.60
2019-06-26T01:57:01.368Z,93.80
2019-06-26T01:59:30.411Z,93.90
2019-06-26T02:01:59.754Z,94.00
2019-06-26T02:04:28.838Z,94.10
2019-06-26T02:06:58.089Z,94.30
2019-06-26T02:09:27.167Z,94.30
2019-06-26T02:11:56.471Z,94.40
2019-06-26T02:14:31.002Z,94.60
2019-06-26T02:16:56.292Z,94.70
2019-06-26T02:19:25.311Z,94.80
2019-06-26T02:21:54.435Z,94.90
2019-06-26T02:24:23.690Z,95.00
2019-06-26T02:26:53.017Z,95.40
2019-06-26T02:29:22.063Z,95.20
2019-06-26T02:31:50.859Z,95.20
2019-06-26T02:34:19.796Z,95.40
2019-06-26T02:36:49.119Z,95.70
2019-06-26T02:39:18.636Z,95.50
2019-06-26T02:41:47.437Z,95.60
2019-06-26T02:44:16.722Z,95.70
2019-06-26T02:46:45.786Z,95.80
2019-06-26T02:49:14.665Z,95.90
2019-06-26T02:51:43.747Z,96.10
2019-06-26T02:54:13.008Z,96.20
2019-06-26T02:56:41.806Z,96.50
2019-06-26T02:59:10.629Z,96.30
2019-06-26T03:01:39.641Z,96.50
2019-06-26T03:04:08.697Z,96.50
2019-06-26T03:06:37.980Z,96.60
2019-06-26T03:09:07.830Z,96.70
2019-06-26T03:11:36.614Z,96.80
2019-06-26T03:14:05.538Z,96.80
2019-06-26T03:16:35.029Z,96.90
2019-06-26T03:19:04.351Z,97.00
2019-06-26T03:21:33.573Z,97.00
2019-06-26T03:24:02.603Z,97.20
2019-06-26T03:26:31.439Z,97.30
2019-06-26T03:29:00.999Z,97.40
2019-06-26T03:31:29.991Z,97.40
2019-06-26T03:33:58.799Z,97.40
2019-06-26T03:36:27.890Z,97.50
2019-06-26T03:38:56.886Z,97.60
2019-06-26T03:41:25.974Z,97.60
2019-06-26T03:43:54.743Z,97.70
2019-06-26T03:46:23.828Z,97.80
2019-06-26T03:48:52.684Z,97.90
2019-06-26T03:51:22.268Z,97.90
2019-06-26T03:53:51.517Z,97.90
2019-06-26T03:56:20.583Z,97.90
2019-06-26T03:58:49.944Z,97.90
2019-06-26T04:01:19.022Z,98.00
2019-06-26T04:03:47.805Z,98.20
2019-06-26T04:06:16.564Z,98.50
2019-06-26T04:08:45.614Z,98.50
2019-06-26T04:11:14.378Z,98.40
2019-06-26T04:13:43.426Z,98.50
2019-06-26T04:16:12.267Z,98.60
2019-06-26T04:18:41.271Z,98.70
2019-06-26T04:21:10.593Z,98.70
2019-06-26T04:23:39.605Z,98.80
2019-06-26T04:26:08.599Z,98.80
2019-06-26T04:28:37.371Z,98.80
2019-06-26T04:31:06.193Z,98.90
2019-06-26T04:33:35.463Z,99.00
2019-06-26T04:36:04.393Z,99.10
2019-06-26T04:38:33.422Z,99.10
2019-06-26T04:41:02.524Z,99.10
2019-06-26T04:43:31.285Z,99.20
2019-06-26T04:46:00.889Z,99.50
2019-06-26T04:48:29.920Z,99.50
2019-06-26T04:50:59.185Z,99.40
2019-06-26T04:53:28.003Z,99.50
2019-06-26T04:55:56.774Z,99.50
2019-06-26T04:58:25.770Z,99.70
2019-06-26T05:00:54.807Z,99.70
2019-06-26T05:03:23.782Z,99.80
2019-06-26T05:05:52.887Z,99.80
2019-06-26T05:08:21.929Z,99.80
2019-06-26T05:10:50.824Z,99.90
2019-06-26T05:13:20.075Z,99.90
2019-06-26T05:15:48.943Z,99.90
2019-06-26T05:18:17.786Z,99.90
2019-06-26T05:20:46.786Z,99.90
2019-06-26T05:23:15.775Z,99.90
2019-06-26T05:25:44.549Z,99.90
2019-06-26T05:28:13.588Z,99.90
2019-06-26T05:30:42.854Z,99.70
2019-06-26T05:33:12.023Z,99.90
2019-06-26T05:35:41.041Z,99.50
2019-06-26T05:38:09.834Z,99.30
2019-06-26T05:40:39.075Z,99.40
2019-06-26T05:43:08.108Z,99.30
2019-06-26T05:45:37.243Z,98.70
2019-06-26T05:48:06.179Z,98.70
2019-06-26T05:50:35.241Z,98.50
2019-06-26T05:53:04.089Z,98.20
2019-06-26T05:55:33.178Z,97.70
2019-06-26T05:58:02.112Z,97.70
2019-06-26T06:00:31.004Z,96.80
2019-06-26T06:03:00.302Z,97.00
2019-06-26T06:05:29.326Z,97.10
2019-06-26T06:07:58.482Z,96.70
2019-06-26T06:10:27.345Z,96.40
2019-06-26T06:12:56.418Z,96.30
2019-06-26T06:15:25.244Z,96.20
2019-06-26T06:17:54.357Z,95.90
2019-06-26T06:20:30.692Z,95.80
2019-06-26T06:22:59.743Z,95.60
2019-06-26T06:25:28.511Z,95.30
2019-06-26T06:27:57.610Z,95.20
2019-06-26T06:30:27.000Z,94.70
2019-06-26T06:32:56.943Z,95.40
2019-06-26T06:35:26.015Z,94.70
2019-06-26T06:37:55.074Z,95.00
2019-06-26T06:40:24.294Z,94.50
2019-06-26T06:42:53.562Z,94.20
2019-06-26T06:45:22.586Z,93.90
2019-06-26T06:47:51.927Z,94.10
2019-06-26T06:50:20.795Z,93.60
2019-06-26T06:52:49.778Z,93.10
2019-06-26T06:55:18.996Z,92.60
2019-06-26T06:57:48.880Z,92.90
2019-06-26T07:00:18.334Z,93.00
2019-06-26T07:02:47.350Z,92.70
2019-06-26T07:05:16.527Z,92.60
2019-06-26T07:07:45.613Z,92.50
2019-06-26T07:10:14.509Z,92.00
2019-06-26T07:12:43.372Z,92.10
2019-06-26T07:15:12.912Z,92.10
2019-06-26T07:17:42.176Z,91.80
2019-06-26T07:20:12.322Z,91.70
2019-06-26T07:22:41.677Z,91.80
2019-06-26T07:25:11.599Z,92.00
2019-06-26T07:27:40.391Z,91.20
2019-06-26T07:30:10.610Z,91.10
2019-06-26T07:32:39.682Z,90.40
2019-06-26T07:35:13.374Z,90.50
2019-06-26T07:37:43.646Z,89.80
2019-06-26T07:40:12.814Z,90.40
2019-06-26T07:42:41.853Z,90.20
2019-06-26T07:45:12.210Z,90.70
2019-06-26T07:47:43.801Z,90.30
2019-06-26T07:50:12.536Z,90.30
2019-06-26T07:52:42.162Z,89.30
2019-06-26T07:55:12.593Z,90.30
2019-06-26T07:57:42.107Z,90.20
2019-06-26T08:00:11.516Z,88.50
2019-06-26T08:02:40.578Z,88.40
2019-06-26T08:05:10.470Z,87.90
2019-06-26T08:07:39.573Z,87.90
2019-06-26T08:10:08.848Z,87.70
2019-06-26T08:12:37.661Z,87.00
2019-06-26T08:15:06.786Z,86.90
2019-06-26T08:17:36.306Z,87.20
2019-06-26T08:20:06.233Z,87.70
2019-06-26T08:22:35.125Z,85.80
2019-06-26T08:25:04.675Z,86.60
2019-06-26T08:27:33.768Z,85.40
2019-06-26T08:30:03.006Z,86.60
2019-06-26T08:32:32.111Z,85.20
2019-06-26T08:35:01.119Z,84.60
2019-06-26T08:37:32.065Z,84.70
2019-06-26T08:40:01.159Z,85.10
2019-06-26T08:42:30.418Z,83.90
2019-06-26T08:44:59.451Z,85.10
2019-06-26T08:47:28.559Z,85.20
2019-06-26T08:49:57.741Z,83.80
2019-06-26T08:52:26.525Z,86.20
2019-06-26T08:54:55.756Z,83.70
2019-06-26T08:57:24.530Z,84.20
2019-06-26T08:59:54.063Z,83.70
2019-06-26T09:02:22.894Z,83.30
2019-06-26T09:04:51.912Z,84.10
2019-06-26T09:07:21.350Z,85.00
2019-06-26T09:09:50.629Z,84.60
2019-06-26T09:12:19.659Z,83.70
2019-06-26T09:14:48.898Z,82.70
2019-06-26T09:17:18.203Z,82.30
2019-06-26T09:19:47.269Z,82.70
2019-06-26T09:22:16.058Z,83.50
2019-06-26T09:25:21.451Z,82.30
2019-06-26T09:27:40.538Z,84.50
2019-06-26T09:30:11.776Z,83.10
2019-06-26T09:32:40.591Z,81.90
2019-06-26T09:35:09.597Z,82.00
2019-06-26T09:37:48.567Z,80.40
2019-06-26T09:40:18.451Z,82.00
2019-06-26T09:42:47.872Z,81.50
2019-06-26T09:45:17.211Z,79.20
2019-06-26T09:47:45.982Z,78.40
2019-06-26T09:50:16.182Z,80.70
2019-06-26T09:52:45.348Z,78.00
2019-06-26T09:55:19.263Z,76.20
2019-06-26T09:57:48.475Z,77.40
2019-06-26T10:00:18.315Z,78.90
2019-06-26T10:02:47.222Z,76.50
2019-06-26T10:05:17.334Z,75.70
2019-06-26T10:07:46.701Z,75.40
2019-06-26T10:10:16.176Z,75.70
2019-06-26T10:12:45.585Z,76.50
2019-06-26T10:15:16.858Z,74.70
2019-06-26T10:17:46.918Z,74.40
2019-06-26T10:20:16.235Z,75.00
2019-06-26T10:22:45.366Z,74.10
2019-06-26T10:25:15.618Z,75.50
2019-06-26T10:27:44.926Z,76.50
2019-06-26T10:30:15.109Z,74.20
2019-06-26T10:32:43.961Z,75.90
2019-06-26T10:35:14.171Z,72.70
2019-06-26T10:37:43.411Z,71.50
2019-06-26T10:40:16.209Z,72.30
2019-06-26T10:42:43.659Z,73.80
2019-06-26T10:45:12.671Z,75.20
2019-06-26T10:47:41.762Z,72.90
2019-06-26T10:50:11.146Z,71.90
2019-06-26T10:52:40.158Z,70.40
2019-06-26T10:55:09.469Z,70.90
2019-06-26T10:57:38.990Z,72.90
2019-06-26T11:00:08.891Z,73.60
2019-06-26T11:02:39.335Z,71.80
2019-06-26T11:05:09.219Z,65.30
2019-06-26T11:07:38.247Z,65.10
2019-06-26T11:10:07.525Z,62.00
2019-06-26T11:12:36.646Z,61.80
2019-06-26T11:15:06.488Z,61.40
2019-06-26T11:17:35.241Z,60.10
2019-06-26T11:20:05.190Z,60.80
2019-06-26T11:22:34.436Z,62.50
2019-06-26T11:25:03.364Z,63.30
2019-06-26T11:27:32.301Z,57.70
2019-06-26T11:30:02.007Z,58.20
2019-06-26T11:32:30.831Z,61.80
2019-06-26T11:35:00.155Z,61.40
2019-06-26T11:37:28.940Z,58.50
2019-06-26T11:39:58.303Z,56.20
2019-06-26T11:42:27.567Z,56.70
2019-06-26T11:44:58.556Z,58.90
2019-06-26T11:47:27.717Z,54.50
2019-06-26T11:50:00.159Z,55.20
2019-06-26T11:52:28.218Z,54.20
2019-06-26T11:55:02.511Z,56.30
2019-06-26T11:57:28.357Z,54.50
2019-06-26T11:59:57.564Z,57.10
2019-06-26T12:02:26.559Z,55.60
2019-06-26T12:04:55.318Z,54.70
2019-06-26T12:07:24.370Z,54.00
2019-06-26T12:09:53.480Z,52.40
2019-06-26T12:12:22.685Z,52.60
2019-06-26T12:14:51.819Z,52.10
2019-06-26T12:17:20.614Z,54.20
2019-06-26T12:19:49.614Z,53.50
2019-06-26T12:22:18.892Z,54.70
2019-06-26T12:24:48.961Z,56.50
2019-06-26T12:27:18.023Z,52.90
2019-06-26T12:29:47.291Z,56.00
2019-06-26T12:32:16.146Z,55.10
2019-06-26T12:34:45.437Z,53.40
2019-06-26T12:37:14.728Z,54.00
2019-06-26T12:39:44.308Z,49.50
2019-06-26T12:42:13.394Z,47.50
2019-06-26T12:44:42.419Z,52.00
2019-06-26T12:47:11.413Z,52.40
2019-06-26T12:49:40.253Z,50.60
2019-06-26T12:52:09.155Z,47.80
2019-06-26T12:54:38.404Z,48.10
2019-06-26T12:57:07.232Z,47.50
2019-06-26T12:59:36.252Z,50.70
2019-06-26T13:02:05.647Z,50.70
2019-06-26T13:04:34.689Z,50.40
2019-06-26T13:07:04.010Z,48.20
2019-06-26T13:09:33.202Z,49.40
2019-06-26T13:12:02.268Z,50.40
2019-06-26T13:14:31.274Z,51.70
2019-06-26T13:17:00.053Z,48.40
2019-06-26T13:19:29.085Z,49.10
2019-06-26T13:21:58.607Z,51.40
2019-06-26T13:24:27.501Z,48.80
2019-06-26T13:26:56.626Z,47.90
2019-06-26T13:29:25.759Z,48.10
2019-06-26T13:31:54.883Z,47.50
2019-06-26T13:34:23.620Z,50.50
2019-06-26T13:36:53.074Z,49.00
2019-06-26T13:39:22.563Z,46.50
2019-06-26T13:41:51.865Z,50.40
2019-06-26T13:44:21.120Z,50.20
2019-06-26T13:46:50.352Z,47.50
2019-06-26T13:49:19.117Z,47.80
2019-06-26T13:51:47.858Z,48.90
2019-06-26T13:54:16.789Z,49.50
2019-06-26T13:56:45.874Z,51.10
2019-06-26T13:59:15.670Z,50.40
2019-06-26T14:01:44.896Z,51.70
2019-06-26T14:04:14.235Z,51.00
2019-06-26T14:06:43.297Z,52.90
2019-06-26T14:09:12.435Z,53.50
2019-06-26T14:11:41.301Z,53.60
2019-06-26T14:14:10.192Z,55.30
2019-06-26T14:16:39.293Z,53.00
2019-06-26T14:19:08.111Z,53.40
2019-06-26T14:21:40.022Z,53.60
2019-06-26T14:24:09.589Z,52.40
2019-06-26T14:26:39.247Z,49.70
2019-06-26T14:29:20.570Z,50.50
2019-06-26T14:31:39.839Z,50.60
2019-06-26T14:34:09.004Z,49.00
2019-06-26T14:36:39.491Z,48.20
2019-06-26T14:39:08.352Z,48.70
2019-06-26T14:41:39.243Z,48.70
2019-06-26T14:44:08.536Z,47.30
2019-06-26T14:46:37.525Z,50.40
2019-06-26T14:49:06.382Z,51.60
2019-06-26T14:51:43.932Z,51.10
2019-06-26T14:54:11.975Z,48.90
2019-06-26T14:56:41.281Z,51.70
2019-06-26T14:59:10.300Z,52.30
2019-06-26T15:01:39.870Z,52.70
2019-06-26T15:04:08.641Z,51.60
2019-06-26T15:06:37.983Z,54.30
2019-06-26T15:09:07.379Z,54.10
2019-06-26T15:11:36.297Z,52.70
2019-06-26T15:14:05.992Z,52.40
2019-06-26T15:16:34.826Z,51.80
2019-06-26T15:19:03.874Z,51.90
2019-06-26T15:21:33.188Z,50.20
2019-06-26T15:24:02.325Z,52.00
2019-06-26T15:26:31.602Z,52.00
2019-06-26T15:29:00.843Z,51.30
2019-06-26T15:31:29.863Z,53.10
2019-06-26T15:33:58.650Z,52.40
2019-06-26T15:36:27.937Z,50.80
2019-06-26T15:38:59.259Z,50.50
2019-06-26T15:41:27.847Z,51.40
2019-06-26T15:43:57.190Z,50.00
2019-06-26T15:46:26.238Z,53.20
2019-06-26T15:48:55.024Z,52.20
2019-06-26T15:51:24.231Z,52.30
2019-06-26T15:53:53.502Z,51.70
2019-06-26T15:56:23.039Z,51.80
2019-06-26T15:58:52.254Z,52.30
2019-06-26T16:01:21.786Z,52.30
2019-06-26T16:03:50.859Z,51.70
2019-06-26T16:06:19.987Z,50.70
2019-06-26T16:08:48.994Z,50.30
2019-06-26T16:11:18.171Z,52.70
2019-06-26T16:13:47.819Z,51.40
2019-06-26T16:16:17.066Z,52.40
2019-06-26T16:18:55.225Z,51.90
2019-06-26T16:21:24.942Z,53.00
2019-06-26T16:23:54.854Z,53.60
2019-06-26T16:26:24.312Z,53.80
2019-06-26T16:28:53.790Z,54.30
2019-06-26T16:31:23.085Z,52.90
2019-06-26T16:33:52.311Z,52.90
2019-06-26T16:36:22.754Z,55.30
2019-06-26T16:38:52.046Z,54.20
2019-06-26T16:41:22.338Z,56.00
2019-06-26T16:43:51.538Z,55.00
2019-06-26T16:46:20.779Z,55.70
2019-06-26T16:48:49.787Z,55.00
2019-06-26T16:51:19.343Z,54.90
2019-06-26T16:53:49.102Z,55.40
2019-06-26T16:56:18.451Z,55.80
2019-06-26T16:58:47.779Z,56.90
2019-06-26T17:01:17.319Z,56.40
2019-06-26T17:03:46.334Z,57.70
2019-06-26T17:06:15.361Z,58.20
2019-06-26T17:08:44.521Z,58.30
2019-06-26T17:11:13.783Z,59.60
2019-06-26T17:13:43.079Z,57.90
2019-06-26T17:16:12.415Z,58.40
2019-06-26T17:18:41.324Z,58.10
2019-06-26T17:21:10.845Z,58.90
2019-06-26T17:23:40.386Z,59.20
2019-06-26T17:26:09.150Z,58.60
2019-06-26T17:28:38.403Z,59.00
2019-06-26T17:31:07.689Z,58.70
2019-06-26T17:33:36.987Z,58.20
2019-06-26T17:36:05.970Z,58.40
2019-06-26T17:38:34.884Z,58.80
2019-06-26T17:41:03.714Z,59.00
2019-06-26T17:43:33.027Z,59.20
2019-06-26T17:46:01.771Z,60.20
2019-06-26T17:48:30.795Z,59.80
2019-06-26T17:50:59.656Z,60.50
2019-06-26T17:53:28.502Z,59.80
2019-06-26T17:55:57.524Z,61.10
2019-06-26T17:58:26.532Z,61.20
2019-06-26T18:00:55.309Z,61.10
2019-06-26T18:03:24.154Z,61.50
2019-06-26T18:05:53.662Z,61.40
2019-06-26T18:08:22.751Z,62.60
2019-06-26T18:10:52.163Z,63.10
2019-06-26T18:13:21.269Z,63.60
2019-06-26T18:15:50.114Z,63.90
2019-06-26T18:18:19.530Z,64.80
2019-06-26T18:20:49.139Z,64.40
2019-06-26T18:23:17.873Z,64.90
2019-06-26T18:25:53.825Z,64.90
2019-06-26T18:28:17.580Z,65.20
2019-06-26T18:30:47.077Z,66.10
2019-06-26T18:33:16.144Z,66.40
2019-06-26T18:35:44.991Z,66.70
2019-06-26T18:38:13.741Z,67.30
2019-06-26T18:40:43.113Z,67.50
2019-06-26T18:43:14.994Z,68.00
2019-06-26T18:45:42.469Z,67.90
2019-06-26T18:48:11.762Z,67.60
2019-06-26T18:50:41.040Z,68.00
2019-06-26T18:53:10.278Z,68.90
2019-06-26T18:55:39.286Z,69.00
2019-06-26T18:58:08.287Z,69.40
2019-06-26T19:00:37.584Z,68.70
2019-06-26T19:03:06.654Z,68.40
2019-06-26T19:05:35.449Z,68.20
2019-06-26T19:08:04.216Z,68.40
2019-06-26T19:10:33.046Z,69.00
2019-06-26T19:13:02.103Z,68.20
2019-06-26T19:15:31.236Z,68.80
2019-06-26T19:17:59.987Z,69.00
2019-06-26T19:20:29.035Z,68.80
2019-06-26T19:22:58.438Z,69.20
2019-06-26T19:25:27.723Z,69.40
2019-06-26T19:27:57.254Z,69.90
2019-06-26T19:30:26.069Z,70.10
2019-06-26T19:32:54.892Z,70.00
2019-06-26T19:35:23.740Z,69.80
2019-06-26T19:37:52.825Z,70.30
2019-06-26T19:40:24.105Z,70.90
2019-06-26T19:42:53.946Z,71.10
2019-06-26T19:45:24.234Z,71.20
2019-06-26T19:47:53.196Z,71.50
2019-06-26T19:50:23.611Z,71.00
2019-06-26T19:52:54.222Z,70.70
2019-06-26T19:55:23.703Z,71.50
2019-06-26T19:57:52.702Z,72.80
2019-06-26T20:00:22.035Z,76.60
2019-06-26T20:02:50.784Z,74.00
2019-06-26T20:05:19.629Z,74.00
2019-06-26T20:07:48.370Z,74.10
2019-06-26T20:10:18.090Z,74.60
2019-06-26T20:12:47.236Z,74.30
2019-06-26T20:15:16.252Z,74.60
2019-06-26T20:17:45.594Z,74.30
2019-06-26T20:20:14.856Z,75.40
2019-06-26T20:22:44.069Z,74.60
2019-06-26T20:25:13.655Z,73.90
2019-06-26T20:27:42.497Z,74.60
2019-06-26T20:30:12.821Z,74.90
2019-06-26T20:32:41.822Z,74.70
2019-06-26T20:35:11.158Z,74.90
2019-06-26T20:37:40.395Z,74.10
2019-06-26T20:40:09.479Z,74.10
2019-06-26T20:42:38.581Z,74.80
2019-06-26T20:45:09.337Z,74.90
2019-06-26T20:47:38.338Z,75.30
2019-06-26T20:50:07.681Z,75.30
2019-06-26T20:52:36.421Z,75.00
2019-06-26T20:55:05.339Z,75.90
2019-06-26T20:57:34.185Z,75.70
2019-06-26T21:00:03.294Z,75.30
2019-06-26T21:02:32.623Z,76.50
2019-06-26T21:05:01.449Z,75.90
2019-06-26T21:07:30.520Z,76.10
2019-06-26T21:10:00.086Z,75.90
2019-06-26T21:12:29.137Z,76.50
2019-06-26T21:14:58.206Z,77.30
2019-06-26T21:17:27.222Z,77.40
2019-06-26T21:19:56.909Z,77.00
2019-06-26T21:22:26.197Z,78.80
2019-06-26T21:24:55.198Z,79.70
2019-06-26T21:27:24.254Z,78.90
2019-06-26T21:29:53.023Z,78.30
2019-06-26T21:32:22.283Z,79.00
2019-06-26T21:34:51.286Z,79.50
2019-06-26T21:37:20.819Z,79.80
2019-06-26T21:39:50.087Z,79.30
2019-06-26T21:42:19.223Z,78.90
2019-06-26T21:44:48.238Z,79.80
2019-06-26T21:47:17.314Z,79.50
2019-06-26T21:50:05.941Z,80.10
2019-06-26T21:52:35.280Z,80.50
2019-06-26T21:55:04.203Z,81.40
2019-06-26T21:57:33.530Z,81.00
2019-06-26T22:00:02.542Z,81.80
2019-06-26T22:02:32.010Z,82.40
2019-06-26T22:05:01.787Z,81.80
2019-06-26T22:07:31.051Z,82.00
2019-06-26T22:10:00.087Z,83.50
2019-06-26T22:12:29.491Z,83.30
2019-06-26T22:14:58.457Z,82.90
2019-06-26T22:17:27.594Z,83.40
2019-06-26T22:19:56.431Z,83.50
2019-06-26T22:22:25.607Z,83.80
2019-06-26T22:24:54.738Z,83.50
2019-06-26T22:27:23.831Z,83.90
2019-06-26T22:29:52.612Z,84.00
2019-06-26T22:32:21.518Z,85.00
2019-06-26T22:34:50.864Z,85.00
2019-06-26T22:37:19.614Z,85.50
2019-06-26T22:39:48.878Z,85.80
2019-06-26T22:42:18.135Z,84.90
2019-06-26T22:44:47.123Z,85.60
2019-06-26T22:47:15.873Z,85.90
2019-06-26T22:49:45.178Z,86.50
2019-06-26T22:52:14.423Z,86.00
2019-06-26T22:54:43.458Z,86.10
2019-06-26T22:57:12.190Z,86.40
2019-06-26T22:59:41.555Z,85.80
2019-06-26T23:02:10.309Z,86.40
2019-06-26T23:04:39.391Z,86.70
2019-06-26T23:07:08.159Z,86.80
2019-06-26T23:09:37.436Z,86.10
2019-06-26T23:12:06.419Z,86.70
2019-06-26T23:14:35.273Z,86.70
2019-06-26T23:17:04.726Z,86.70
2019-06-26T23:19:33.728Z,86.00
2019-06-26T23:22:02.745Z,87.10
2019-06-26T23:24:31.737Z,86.60
2019-06-26T23:27:00.697Z,87.80
2019-06-26T23:29:29.523Z,87.80
2019-06-26T23:31:58.581Z,88.60
2019-06-26T23:34:27.602Z,88.90
2019-06-26T23:36:56.352Z,87.10
2019-06-26T23:39:25.114Z,88.20
2019-06-26T23:41:54.091Z,87.90
2019-06-26T23:44:23.136Z,88.20
2019-06-26T23:46:52.262Z,88.50
2019-06-26T23:49:21.351Z,88.00
2019-06-26T23:51:50.650Z,89.00
2019-06-26T23:54:19.986Z,89.40
2019-06-26T23:56:48.747Z,90.00
2019-06-26T23:59:17.744Z,89.60
